Time;durP1;ratioP1;P1;durP2;ratioP2;P2;SDS_P1;SDS_P2;PMS_P1;PMS_P2;Temp;Humidity;BMP_temperature;BMP_pressure;BME280_temperature;BME280_humidity;BME280_pressure;Samples;Min_cycle;Max_cycle;Signal;HPM_P1;HPM_P2
2021/06/05 00:01:01;;;;;;;19.23;18.33;;;16.10;99.90;;;;;;5103180;28;20465;-75
2021/06/05 00:03:28;;;;;;;18.87;17.97;;;16.10;99.90;;;;;;5102914;28;20555;-74
2021/06/05 00:05:58;;;;;;;18.70;17.80;;;16.20;99.90;;;;;;5100312;28;20515;-74
2021/06/05 00:08:25;;;;;;;18.07;17.20;;;16.40;99.90;;;;;;5106170;28;20829;-75
2021/06/05 00:10:55;;;;;;;17.73;16.90;;;16.40;99.90;;;;;;5104502;28;20453;-77
2021/06/05 00:13:25;;;;;;;18.57;17.67;;;16.40;99.90;;;;;;5101153;27;20544;-75
2021/06/05 00:15:52;;;;;;;18.27;17.37;;;16.40;99.90;;;;;;5097905;28;20469;-76
2021/06/05 00:18:20;;;;;;;17.87;16.97;;;16.30;99.90;;;;;;5100895;28;20469;-75
2021/06/05 00:20:47;;;;;;;17.77;16.87;;;16.20;99.90;;;;;;5100934;28;20553;-76
2021/06/05 00:23:17;;;;;;;17.93;17.03;;;16.20;99.90;;;;;;5104439;28;21041;-74
2021/06/05 00:25:44;;;;;;;18.67;17.77;;;16.30;99.90;;;;;;5104365;28;20465;-76
2021/06/05 00:28:11;;;;;;;17.67;16.77;;;16.30;99.90;;;;;;5097031;28;20986;-78
2021/06/05 00:30:37;;;;;;;17.30;16.50;;;16.30;99.90;;;;;;5103609;28;20461;-74
2021/06/05 00:33:04;;;;;;;18.47;17.57;;;16.40;99.90;;;;;;5101439;28;20533;-76
2021/06/05 00:35:33;;;;;;;18.17;17.27;;;16.40;99.90;;;;;;5099080;28;20539;-75
2021/06/05 00:38:00;;;;;;;18.63;17.73;;;16.40;99.90;;;;;;5104754;28;20454;-73
2021/06/05 00:40:29;;;;;;;20.20;19.10;;;16.30;99.90;;;;;;5099908;28;20484;-77
2021/06/05 00:42:57;;;;;;;18.80;17.90;;;16.40;99.90;;;;;;5098922;28;20460;-74
2021/06/05 00:45:26;;;;;;;18.93;17.93;;;16.30;99.90;;;;;;5098936;28;20874;-75
2021/06/05 00:47:53;;;;;;;18.87;17.87;;;16.30;99.90;;;;;;5100163;28;20461;-75
2021/06/05 00:50:20;;;;;;;19.50;18.50;;;16.30;99.90;;;;;;5103235;28;20507;-75
2021/06/05 00:52:48;;;;;;;20.07;18.97;;;16.30;99.90;;;;;;5105608;28;20467;-75
2021/06/05 00:55:18;;;;;;;19.23;18.23;;;16.20;99.90;;;;;;5101165;28;20485;-75
2021/06/05 00:57:44;;;;;;;19.30;18.30;;;16.20;99.90;;;;;;5097691;28;20489;-75
2021/06/05 01:00:14;;;;;;;19.33;18.33;;;16.20;99.90;;;;;;5103241;28;20577;-75
2021/06/05 01:02:41;;;;;;;20.07;18.97;;;16.30;99.90;;;;;;5100377;28;20462;-75
2021/06/05 01:05:08;;;;;;;19.33;18.33;;;16.30;99.90;;;;;;5098941;28;20489;-77
2021/06/05 01:07:35;;;;;;;20.33;19.23;;;16.20;99.90;;;;;;5102122;28;21648;-78
2021/06/05 01:10:08;;;;;;;20.80;19.70;;;16.20;99.90;;;;;;5104947;28;20457;-74
2021/06/05 01:12:43;;;;;;;19.90;18.80;;;16.30;99.90;;;;;;5102555;27;20465;-75
2021/06/05 01:15:16;;;;;;;19.80;18.70;;;16.40;99.90;;;;;;5103229;28;20457;-76
2021/06/05 01:17:45;;;;;;;20.07;18.97;;;16.40;99.90;;;;;;5102150;28;20461;-75
2021/06/05 01:20:16;;;;;;;20.33;19.23;;;16.50;99.90;;;;;;5099562;28;20491;-79
2021/06/05 01:22:58;;;;;;;19.83;18.73;;;16.60;99.90;;;;;;5099376;28;20983;-75
2021/06/05 01:25:53;;;;;;;19.30;18.30;;;16.60;99.90;;;;;;5096199;28;20524;-74
2021/06/05 01:28:23;;;;;;;19.40;18.40;;;16.80;99.90;;;;;;5097290;28;20465;-77
2021/06/05 01:30:52;;;;;;;20.27;19.17;;;16.80;99.90;;;;;;5100661;28;20467;-75
2021/06/05 01:33:24;;;;;;;19.63;18.60;;;16.80;99.90;;;;;;5096758;28;20465;-75
2021/06/05 01:35:51;;;;;;;19.97;18.77;;;16.80;99.90;;;;;;5101236;28;20465;-74
2021/06/05 01:38:19;;;;;;;19.70;18.70;;;16.80;99.90;;;;;;5098002;28;21426;-75
2021/06/05 01:40:47;;;;;;;20.27;18.90;;;16.80;99.90;;;;;;5100660;28;20493;-77
2021/06/05 01:43:17;;;;;;;18.87;17.87;;;16.80;99.90;;;;;;5101210;28;20506;-77
2021/06/05 01:45:44;;;;;;;18.90;17.90;;;16.90;99.90;;;;;;5094529;28;20511;-75
2021/06/05 01:48:13;;;;;;;18.33;17.43;;;16.90;99.90;;;;;;5103219;28;20465;-75
2021/06/05 01:50:41;;;;;;;17.47;16.57;;;17.10;99.90;;;;;;5101512;28;20459;-75
2021/06/05 01:53:11;;;;;;;17.87;16.97;;;17.10;99.90;;;;;;5098326;28;20495;-74
2021/06/05 01:55:42;;;;;;;17.07;16.27;;;17.10;99.90;;;;;;5092178;28;20672;-75
2021/06/05 01:58:13;;;;;;;18.33;17.27;;;17.10;99.90;;;;;;5101903;28;20786;-75
2021/06/05 02:00:46;;;;;;;17.33;16.53;;;17.20;99.90;;;;;;5099198;28;20530;-76
2021/06/05 02:03:14;;;;;;;17.83;16.93;;;17.20;99.90;;;;;;5095686;28;20472;-75
2021/06/05 02:05:41;;;;;;;18.00;17.10;;;17.30;99.90;;;;;;5103645;28;20735;-75
2021/06/05 02:08:11;;;;;;;17.30;16.50;;;17.30;99.90;;;;;;5101733;28;20951;-75
2021/06/05 02:10:38;;;;;;;17.27;16.47;;;17.30;99.90;;;;;;5098297;28;20469;-75
2021/06/05 02:13:06;;;;;;;16.80;16.00;;;17.40;99.90;;;;;;5101861;28;20457;-77
2021/06/05 02:15:37;;;;;;;16.57;15.77;;;17.40;99.90;;;;;;5101881;28;20553;-75
2021/06/05 02:18:09;;;;;;;16.27;15.57;;;17.50;99.90;;;;;;5103167;28;20557;-75
2021/06/05 02:20:39;;;;;;;15.80;15.10;;;17.50;99.90;;;;;;5101095;28;20476;-76
2021/06/05 02:23:11;;;;;;;16.30;15.50;;;17.50;99.90;;;;;;5097757;28;20464;-76
2021/06/05 02:25:38;;;;;;;17.30;16.50;;;17.50;99.90;;;;;;5099503;28;20553;-74
2021/06/05 02:28:07;;;;;;;16.33;15.53;;;17.50;99.90;;;;;;5101927;28;20458;-75
2021/06/05 02:30:34;;;;;;;15.47;14.77;;;17.60;99.90;;;;;;5102986;28;20453;-75
2021/06/05 02:33:03;;;;;;;17.00;16.20;;;17.60;99.90;;;;;;5098945;28;20522;-75
2021/06/05 02:35:35;;;;;;;15.70;15.00;;;17.60;99.90;;;;;;5098191;28;20505;-77
2021/06/05 02:38:02;;;;;;;15.30;14.60;;;17.70;99.90;;;;;;5098538;28;20461;-77
2021/06/05 02:40:31;;;;;;;17.03;16.00;;;17.60;99.90;;;;;;5097683;28;20490;-78
2021/06/05 02:42:59;;;;;;;15.47;14.77;;;17.70;99.90;;;;;;5097746;28;20787;-77
2021/06/05 02:45:35;;;;;;;15.33;14.63;;;17.70;99.90;;;;;;5099303;28;20963;-77
2021/06/05 02:48:03;;;;;;;15.57;14.87;;;17.60;99.90;;;;;;5089548;28;20547;-75
2021/06/05 02:50:34;;;;;;;15.63;14.93;;;17.60;99.90;;;;;;5097244;28;20455;-75
2021/06/05 02:53:00;;;;;;;15.33;14.63;;;17.70;99.90;;;;;;5101411;28;20685;-75
2021/06/05 02:55:27;;;;;;;15.20;14.50;;;17.60;99.90;;;;;;5104567;28;20469;-75
2021/06/05 02:57:53;;;;;;;14.40;13.80;;;17.70;99.90;;;;;;5099393;28;20545;-77
2021/06/05 03:00:27;;;;;;;14.60;13.97;;;17.70;99.90;;;;;;5094271;28;20546;-75
2021/06/05 03:02:53;;;;;;;15.10;14.40;;;17.70;99.90;;;;;;5095144;28;20485;-77
2021/06/05 03:05:19;;;;;;;15.23;14.53;;;17.70;99.90;;;;;;5103625;28;20473;-75
2021/06/05 03:07:48;;;;;;;14.47;13.87;;;17.70;99.90;;;;;;5098441;28;20465;-75
2021/06/05 03:10:15;;;;;;;14.20;13.60;;;17.70;99.90;;;;;;5092876;28;20461;-75
2021/06/05 03:12:42;;;;;;;14.43;13.83;;;17.70;99.90;;;;;;5096350;28;20527;-77
2021/06/05 03:15:10;;;;;;;14.23;13.63;;;17.70;99.90;;;;;;5098317;28;20801;-77
2021/06/05 03:17:37;;;;;;;14.00;13.40;;;17.70;99.90;;;;;;5101591;28;20454;-76
2021/06/05 03:20:05;;;;;;;15.13;14.47;;;17.70;99.90;;;;;;5098510;28;20611;-75
2021/06/05 03:22:31;;;;;;;14.30;13.70;;;17.80;99.90;;;;;;5099928;28;20448;-75
2021/06/05 03:24:59;;;;;;;14.83;14.13;;;17.80;99.90;;;;;;5098211;28;20460;-74
2021/06/05 03:27:25;;;;;;;14.63;14.00;;;17.60;99.90;;;;;;5097115;28;20466;-76
2021/06/05 03:29:52;;;;;;;15.27;14.57;;;17.60;99.90;;;;;;5100818;28;20814;-75
2021/06/05 03:32:18;;;;;;;14.83;14.13;;;17.60;99.90;;;;;;5103448;28;20457;-75
2021/06/05 03:34:45;;;;;;;13.63;13.03;;;17.50;99.90;;;;;;5094984;28;20460;-78
2021/06/05 03:37:11;;;;;;;13.73;13.13;;;17.70;99.90;;;;;;5095489;28;20968;-75
2021/06/05 03:39:39;;;;;;;15.00;14.30;;;17.60;99.90;;;;;;5096820;28;20477;-79
2021/06/05 03:42:09;;;;;;;14.10;13.50;;;17.50;99.90;;;;;;5095000;28;20865;-75
2021/06/05 03:44:35;;;;;;;14.03;13.43;;;17.60;99.90;;;;;;5098217;28;20867;-75
2021/06/05 03:47:02;;;;;;;13.97;13.37;;;17.70;99.90;;;;;;5094596;28;20507;-76
2021/06/05 03:49:29;;;;;;;14.07;13.47;;;17.60;99.90;;;;;;5098561;28;20982;-76
2021/06/05 03:51:56;;;;;;;14.23;13.63;;;17.50;99.90;;;;;;5097669;28;20461;-78
2021/06/05 03:54:22;;;;;;;14.00;13.40;;;17.40;99.90;;;;;;5096419;28;20466;-76
2021/06/05 03:56:49;;;;;;;14.50;13.90;;;17.40;99.90;;;;;;5099776;28;20465;-78
2021/06/05 03:59:16;;;;;;;13.67;13.07;;;17.50;99.90;;;;;;5095441;28;20516;-75
2021/06/05 04:01:43;;;;;;;13.57;12.97;;;17.50;99.90;;;;;;5103245;28;20467;-78
2021/06/05 04:04:09;;;;;;;14.70;14.10;;;17.50;99.90;;;;;;5094067;28;21010;-74
2021/06/05 04:06:36;;;;;;;14.00;13.40;;;17.50;99.90;;;;;;5095143;28;20465;-76
2021/06/05 04:09:04;;;;;;;13.83;13.23;;;17.50;99.90;;;;;;5094713;28;21250;-77
2021/06/05 04:11:32;;;;;;;13.60;13.00;;;17.50;99.90;;;;;;5100447;28;20453;-74
2021/06/05 04:14:01;;;;;;;13.33;12.73;;;17.50;99.90;;;;;;5098795;28;20555;-75
2021/06/05 04:16:30;;;;;;;14.20;13.40;;;17.40;99.90;;;;;;5097541;28;20465;-75
2021/06/05 04:18:57;;;;;;;13.60;13.00;;;17.40;99.90;;;;;;5101086;28;20895;-75
2021/06/05 04:21:25;;;;;;;13.93;13.33;;;17.40;99.90;;;;;;5098327;28;20545;-78
2021/06/05 04:23:52;;;;;;;14.20;13.60;;;17.50;99.90;;;;;;5094124;28;20454;-75
2021/06/05 04:26:20;;;;;;;15.47;14.77;;;17.50;99.90;;;;;;5097556;28;20454;-76
2021/06/05 04:28:47;;;;;;;13.90;13.30;;;17.50;99.90;;;;;;5097450;28;20836;-79
2021/06/05 04:31:14;;;;;;;14.33;13.73;;;17.50;99.90;;;;;;5097068;28;20465;-79
2021/06/05 04:33:42;;;;;;;14.27;13.67;;;17.60;99.90;;;;;;5099126;28;20518;-77
2021/06/05 04:36:11;;;;;;;14.07;13.47;;;17.70;99.90;;;;;;5096539;28;20803;-76
2021/06/05 04:38:39;;;;;;;13.80;13.20;;;17.80;99.90;;;;;;5098159;28;20963;-78
2021/06/05 04:41:07;;;;;;;13.57;12.97;;;17.80;99.90;;;;;;5096211;28;20538;-74
2021/06/05 04:43:35;;;;;;;12.90;12.40;;;17.80;99.90;;;;;;5099591;28;20476;-77
2021/06/05 04:46:02;;;;;;;12.73;12.23;;;17.90;99.90;;;;;;5101803;28;20556;-75
2021/06/05 04:48:28;;;;;;;14.27;13.60;;;18.00;99.90;;;;;;5103734;28;20463;-74
2021/06/05 04:50:56;;;;;;;12.40;11.90;;;17.90;99.90;;;;;;5099512;28;20511;-78
2021/06/05 04:53:23;;;;;;;12.07;11.57;;;17.90;99.90;;;;;;5098202;28;20466;-76
2021/06/05 04:55:50;;;;;;;12.40;11.90;;;17.90;99.90;;;;;;5104218;28;20453;-75
2021/06/05 04:58:17;;;;;;;12.70;12.20;;;17.80;99.90;;;;;;5102166;28;20472;-75
2021/06/05 05:00:46;;;;;;;12.43;11.93;;;17.70;99.90;;;;;;5102795;28;20489;-77
2021/06/05 05:03:15;;;;;;;12.70;12.20;;;17.70;99.90;;;;;;5094388;28;20468;-75
2021/06/05 05:05:42;;;;;;;12.50;12.00;;;17.60;99.90;;;;;;5098941;28;20477;-75
2021/06/05 05:08:13;;;;;;;12.27;11.77;;;17.60;99.90;;;;;;5099314;28;20461;-78
2021/06/05 05:10:44;;;;;;;12.20;11.70;;;17.70;99.90;;;;;;5106704;28;20852;-75
2021/06/05 05:13:13;;;;;;;11.83;11.33;;;17.80;99.90;;;;;;5105554;27;20469;-74
2021/06/05 05:15:40;;;;;;;11.70;11.20;;;17.90;99.90;;;;;;5098068;28;20518;-76
2021/06/05 05:18:07;;;;;;;14.37;13.33;;;17.80;99.90;;;;;;5098991;28;20465;-74
2021/06/05 05:20:35;;;;;;;12.77;12.27;;;17.60;99.90;;;;;;5103493;28;20539;-75
2021/06/05 05:23:04;;;;;;;13.90;13.30;;;17.80;99.90;;;;;;5093177;28;20744;-75
2021/06/05 05:25:32;;;;;;;11.43;10.97;;;17.90;99.90;;;;;;5101260;28;20475;-75
2021/06/05 05:28:00;;;;;;;11.67;11.17;;;18.00;99.90;;;;;;5100844;28;20534;-75
2021/06/05 05:30:29;;;;;;;11.13;10.73;;;18.10;99.90;;;;;;5102589;28;20468;-75
2021/06/05 05:32:56;;;;;;;11.77;11.27;;;18.20;99.90;;;;;;5103082;28;20563;-77
2021/06/05 05:35:23;;;;;;;10.90;10.50;;;18.40;99.90;;;;;;5094430;28;20464;-76
2021/06/05 05:37:50;;;;;;;26.77;23.37;;;18.50;99.90;;;;;;5105797;28;20817;-77
2021/06/05 05:40:18;;;;;;;44.27;35.20;;;18.60;99.90;;;;;;5103106;28;20870;-77
2021/06/05 05:42:46;;;;;;;54.53;38.40;;;18.50;99.90;;;;;;5099747;28;20915;-75
2021/06/05 05:45:14;;;;;;;52.70;37.07;;;18.60;99.90;;;;;;5099293;28;20477;-75
2021/06/05 05:47:41;;;;;;;55.23;40.80;;;18.70;99.90;;;;;;5102176;28;20851;-76
2021/06/05 05:50:10;;;;;;;57.50;38.93;;;18.50;99.90;;;;;;5093717;28;20458;-75
2021/06/05 05:52:37;;;;;;;57.07;40.10;;;18.50;99.90;;;;;;5101526;28;20460;-76
2021/06/05 05:55:06;;;;;;;56.17;37.90;;;18.50;99.90;;;;;;5103642;28;20460;-75
2021/06/05 05:57:33;;;;;;;63.47;40.40;;;18.50;99.90;;;;;;5098093;28;20812;-75
2021/06/05 06:00:00;;;;;;;56.13;41.17;;;18.60;99.90;;;;;;5093728;28;20485;-73
2021/06/05 06:02:27;;;;;;;58.07;41.27;;;18.60;99.90;;;;;;5099060;28;20526;-78
2021/06/05 06:04:53;;;;;;;61.53;40.60;;;18.60;99.90;;;;;;5097141;28;21197;-75
2021/06/05 06:07:20;;;;;;;60.33;42.17;;;18.60;99.90;;;;;;5095872;28;20461;-74
2021/06/05 06:09:46;;;;;;;59.90;39.10;;;18.60;99.90;;;;;;5106312;28;20449;-76
2021/06/05 06:12:13;;;;;;;56.50;39.40;;;18.70;99.90;;;;;;5097800;27;20471;-78
2021/06/05 06:14:39;;;;;;;56.27;39.67;;;18.70;99.90;;;;;;5096902;28;20555;-75
2021/06/05 06:17:07;;;;;;;61.40;40.27;;;18.80;99.90;;;;;;5100772;28;20545;-75
2021/06/05 06:19:33;;;;;;;56.90;40.77;;;18.80;99.90;;;;;;5096359;28;20461;-75
2021/06/05 06:21:59;;;;;;;51.87;37.67;;;18.90;99.90;;;;;;5096840;28;20454;-76
2021/06/05 06:24:26;;;;;;;55.63;37.97;;;19.00;99.90;;;;;;5101445;28;20476;-75
2021/06/05 06:26:52;;;;;;;51.90;38.63;;;19.10;99.90;;;;;;5098123;28;20466;-75
2021/06/05 06:29:27;;;;;;;56.00;39.50;;;18.90;99.90;;;;;;5095044;28;20453;-75
2021/06/05 06:31:54;;;;;;;64.17;42.50;;;19.00;99.90;;;;;;5095808;28;20474;-77
2021/06/05 06:34:23;;;;;;;57.00;39.67;;;19.20;99.90;;;;;;5098388;28;21172;-75
2021/06/05 06:36:51;;;;;;;55.37;39.70;;;19.50;99.90;;;;;;5102470;28;21011;-76
2021/06/05 06:39:18;;;;;;;57.50;41.70;;;19.60;99.90;;;;;;5102068;28;20950;-74
2021/06/05 06:41:44;;;;;;;47.50;37.80;;;19.80;99.90;;;;;;5100149;28;20454;-75
2021/06/05 06:44:11;;;;;;;51.60;39.97;;;20.10;99.90;;;;;;5100761;28;20457;-74
2021/06/05 06:46:40;;;;;;;50.57;39.17;;;20.30;99.90;;;;;;5092440;28;20549;-75
2021/06/05 06:49:07;;;;;;;57.17;39.20;;;20.20;99.90;;;;;;5091805;28;20462;-75
2021/06/05 06:51:36;;;;;;;53.70;39.57;;;20.20;99.90;;;;;;5090475;28;20499;-75
2021/06/05 06:54:03;;;;;;;49.40;39.93;;;20.20;99.90;;;;;;5095407;28;20461;-74
2021/06/05 06:56:30;;;;;;;54.10;41.90;;;20.20;99.90;;;;;;5099237;28;20527;-76
2021/06/05 06:58:56;;;;;;;53.33;41.90;;;20.00;99.90;;;;;;5089038;28;20840;-78
2021/06/05 07:01:23;;;;;;;56.63;40.10;;;19.90;99.90;;;;;;5094071;28;20584;-77
2021/06/05 07:03:50;;;;;;;52.07;42.63;;;19.90;99.90;;;;;;5091559;28;20492;-78
2021/06/05 07:06:17;;;;;;;54.00;42.13;;;19.90;99.90;;;;;;5101585;28;21045;-76
2021/06/05 07:08:45;;;;;;;54.40;41.83;;;20.00;99.90;;;;;;5100405;28;20486;-75
2021/06/05 07:11:15;;;;;;;55.60;41.57;;;19.80;99.90;;;;;;5095033;28;20466;-76
2021/06/05 07:13:41;;;;;;;54.23;41.60;;;20.10;99.90;;;;;;5098204;27;20490;-77
2021/06/05 07:16:08;;;;;;;53.50;41.63;;;20.30;99.90;;;;;;5098959;28;20466;-75
2021/06/05 07:18:35;;;;;;;59.80;42.87;;;20.40;99.90;;;;;;5099985;28;20457;-76
2021/06/05 07:21:03;;;;;;;58.13;41.70;;;20.50;99.90;;;;;;5106439;28;20497;-79
2021/06/05 07:23:31;;;;;;;52.83;40.10;;;20.60;99.90;;;;;;5097492;28;20491;-77
2021/06/05 07:26:02;;;;;;;56.60;42.23;;;20.90;99.90;;;;;;5093012;28;20466;-76
2021/06/05 07:28:32;;;;;;;54.53;41.90;;;21.10;99.90;;;;;;5095703;28;20477;-76
2021/06/05 07:31:01;;;;;;;49.47;38.40;;;21.10;99.90;;;;;;5101531;28;20469;-76
2021/06/05 07:33:28;;;;;;;56.20;41.57;;;21.20;99.90;;;;;;5098162;28;20461;-76
2021/06/05 07:35:56;;;;;;;50.63;39.20;;;21.00;99.90;;;;;;5102758;28;20459;-76
2021/06/05 07:38:25;;;;;;;53.13;41.40;;;21.10;99.90;;;;;;5096587;28;20479;-76
2021/06/05 07:40:54;;;;;;;59.63;42.53;;;21.20;99.90;;;;;;5096762;28;20704;-76
2021/06/05 07:43:24;;;;;;;55.47;41.03;;;21.20;99.90;;;;;;5099679;28;21058;-77
2021/06/05 07:45:51;;;;;;;50.80;40.60;;;21.30;99.90;;;;;;5080697;28;20852;-76
2021/06/05 07:48:18;;;;;;;56.73;41.77;;;21.10;99.90;;;;;;5091016;28;20473;-78
2021/06/05 07:50:45;;;;;;;55.03;42.13;;;21.20;99.90;;;;;;5090836;28;20461;-79
2021/06/05 07:53:12;;;;;;;55.33;42.60;;;21.40;99.90;;;;;;5095134;28;20826;-75
2021/06/05 07:55:39;;;;;;;52.53;41.07;;;21.50;99.90;;;;;;5087517;28;20971;-74
2021/06/05 07:58:06;;;;;;;55.57;42.00;;;21.70;99.90;;;;;;5091661;28;21007;-72
2021/06/05 08:00:36;;;;;;;55.40;42.30;;;21.50;99.90;;;;;;5089643;28;21329;-71
2021/06/05 08:03:03;;;;;;;53.60;41.80;;;21.50;99.90;;;;;;5095159;28;20469;-70
2021/06/05 08:05:30;;;;;;;57.77;42.03;;;21.60;99.90;;;;;;5095934;28;20568;-70
2021/06/05 08:07:57;;;;;;;50.20;40.40;;;21.80;99.90;;;;;;5095712;28;20484;-69
2021/06/05 08:10:25;;;;;;;48.40;38.93;;;22.00;99.90;;;;;;5095556;28;20983;-70
2021/06/05 08:12:52;;;;;;;55.23;43.43;;;22.10;99.90;;;;;;5094326;28;20504;-70
2021/06/05 08:15:24;;;;;;;54.73;43.97;;;22.00;99.90;;;;;;5092847;28;20977;-70
2021/06/05 08:17:52;;;;;;;50.03;38.90;;;22.10;99.90;;;;;;5099148;28;20886;-70
2021/06/05 08:20:21;;;;;;;47.47;38.70;;;22.20;99.90;;;;;;5091672;28;20493;-70
2021/06/05 08:22:48;;;;;;;51.50;39.20;;;22.50;99.90;;;;;;5095662;28;20465;-70
2021/06/05 08:25:15;;;;;;;47.47;38.93;;;22.40;99.90;;;;;;5097346;28;20453;-72
2021/06/05 08:27:42;;;;;;;48.13;39.80;;;22.40;99.90;;;;;;5094390;28;20525;-72
2021/06/05 08:30:16;;;;;;;50.87;38.03;;;22.20;99.90;;;;;;5097189;28;20457;-71
2021/06/05 08:32:42;;;;;;;46.20;37.80;;;22.00;99.90;;;;;;5097471;28;20469;-70
2021/06/05 08:35:11;;;;;;;46.20;38.10;;;21.80;99.90;;;;;;5093739;28;20884;-70
2021/06/05 08:37:38;;;;;;;55.43;42.20;;;21.40;99.90;;;;;;5094331;28;20469;-71
2021/06/05 08:40:06;;;;;;;48.83;40.90;;;21.50;99.90;;;;;;5096147;28;20889;-70
2021/06/05 08:42:42;;;;;;;60.80;44.17;;;21.70;99.90;;;;;;5092628;28;21377;-71
2021/06/05 08:45:11;;;;;;;59.57;42.57;;;21.50;99.90;;;;;;5091136;28;21083;-70
2021/06/05 08:47:39;;;;;;;67.77;43.67;;;21.40;99.90;;;;;;5089106;28;20722;-70
2021/06/05 08:50:08;;;;;;;67.53;42.87;;;21.50;99.90;;;;;;5091732;28;20485;-70
2021/06/05 08:52:41;;;;;;;63.60;41.20;;;21.80;99.90;;;;;;5095825;28;20488;-71
2021/06/05 08:55:12;;;;;;;65.87;42.90;;;21.80;99.90;;;;;;5095233;28;20873;-71
2021/06/05 08:57:44;;;;;;;66.00;44.70;;;21.80;99.90;;;;;;5092092;28;20481;-69
2021/06/05 09:00:16;;;;;;;64.67;43.60;;;21.70;99.90;;;;;;5099355;28;20488;-70
2021/06/05 09:02:45;;;;;;;56.73;39.63;;;21.60;99.90;;;;;;5095358;28;21137;-70
2021/06/05 09:05:14;;;;;;;68.57;43.20;;;21.80;99.90;;;;;;5094054;28;20481;-70
2021/06/05 09:07:43;;;;;;;82.40;47.00;;;21.50;99.90;;;;;;5094499;28;20523;-71
2021/06/05 09:10:12;;;;;;;87.27;47.57;;;21.00;99.90;;;;;;5096481;28;20466;-70
2021/06/05 09:12:39;;;;;;;90.60;48.40;;;20.70;99.90;;;;;;5098275;27;20457;-70
2021/06/05 09:15:07;;;;;;;91.20;46.30;;;20.40;99.90;;;;;;5093622;28;20575;-74
2021/06/05 09:17:37;;;;;;;83.60;47.43;;;20.20;99.90;;;;;;5096180;28;20822;-74
2021/06/05 09:20:14;;;;;;;87.90;48.10;;;20.10;99.90;;;;;;5094194;28;20846;-72
2021/06/05 09:22:45;;;;;;;88.30;47.43;;;20.20;99.90;;;;;;5095922;28;20591;-74
2021/06/05 09:25:24;;;;;;;88.83;49.60;;;20.20;99.90;;;;;;5091148;28;20583;-74
2021/06/05 09:27:51;;;;;;;92.20;48.03;;;20.30;99.90;;;;;;5088842;28;20493;-72
2021/06/05 09:30:34;;;;;;;85.07;47.50;;;20.50;99.90;;;;;;5097929;28;21036;-72
2021/06/05 09:33:03;;;;;;;96.37;52.27;;;20.60;99.90;;;;;;5096661;28;20463;-72
2021/06/05 09:35:33;;;;;;;86.80;51.50;;;20.40;99.90;;;;;;5095517;28;20491;-73
2021/06/05 09:38:18;;;;;;;100.07;55.07;;;20.50;99.90;;;;;;5097682;28;20901;-72
2021/06/05 09:40:59;;;;;;;96.10;52.80;;;20.60;99.90;;;;;;5093079;28;20530;-72
2021/06/05 09:43:27;;;;;;;99.63;53.00;;;20.70;99.90;;;;;;5092955;28;20468;-71
2021/06/05 09:46:13;;;;;;;94.60;54.97;;;20.90;99.90;;;;;;5087611;28;20468;-72
2021/06/05 09:48:41;;;;;;;96.47;54.70;;;21.20;99.90;;;;;;5094704;28;20461;-72
2021/06/05 09:51:26;;;;;;;100.23;58.10;;;21.50;99.90;;;;;;5087674;28;20462;-72
2021/06/05 09:54:05;;;;;;;106.97;59.80;;;21.40;99.90;;;;;;5089923;28;20502;-72
2021/06/05 09:56:35;;;;;;;125.90;68.70;;;21.40;99.90;;;;;;5092430;28;20791;-72
2021/06/05 09:59:05;;;;;;;113.27;62.40;;;21.50;99.90;;;;;;5096278;28;21031;-72
2021/06/05 10:01:34;;;;;;;126.47;66.03;;;21.60;99.90;;;;;;5094338;28;20485;-72
2021/06/05 10:04:17;;;;;;;129.57;68.83;;;21.80;99.90;;;;;;5092858;28;20487;-73
2021/06/05 10:06:47;;;;;;;125.80;72.83;;;21.90;99.90;;;;;;5094792;28;20468;-73
2021/06/05 10:09:37;;;;;;;120.30;69.20;;;21.90;99.90;;;;;;5096061;28;20457;-73
2021/06/05 10:12:06;;;;;;;121.77;70.23;;;21.60;99.90;;;;;;5098913;28;20544;-72
2021/06/05 10:15:03;;;;;;;111.20;65.27;;;21.80;99.90;;;;;;5093486;28;20461;-72
2021/06/05 10:17:50;;;;;;;114.33;67.73;;;22.10;99.90;;;;;;5049501;28;20545;-72
2021/06/05 10:20:25;;;;;;;111.77;69.83;;;22.30;99.90;;;;;;5091952;28;20512;-72
2021/06/05 10:22:55;;;;;;;114.73;70.57;;;22.50;99.90;;;;;;5094700;28;20457;-73
2021/06/05 10:25:35;;;;;;;114.93;71.90;;;22.70;99.90;;;;;;5091171;28;20515;-72
2021/06/05 10:28:05;;;;;;;109.63;71.43;;;23.00;99.90;;;;;;5090221;28;20544;-72
2021/06/05 10:30:43;;;;;;;110.97;71.83;;;23.30;99.90;;;;;;5088979;28;21204;-72
2021/06/05 10:33:15;;;;;;;110.23;67.30;;;23.30;99.90;;;;;;5095902;28;20475;-72
2021/06/05 10:35:43;;;;;;;109.30;69.77;;;23.50;99.90;;;;;;5091037;28;21121;-73
2021/06/05 10:38:13;;;;;;;114.13;74.37;;;23.50;99.90;;;;;;5090532;28;20464;-71
2021/06/05 10:40:41;;;;;;;115.93;75.40;;;23.50;99.90;;;;;;5072682;28;20490;-73
2021/06/05 10:43:15;;;;;;;113.20;75.53;;;23.20;99.90;;;;;;5088486;28;20867;-74
2021/06/05 10:45:43;;;;;;;102.40;73.23;;;23.50;99.90;;;;;;5094945;28;20466;-73
2021/06/05 10:48:17;;;;;;;109.10;71.77;;;23.60;99.90;;;;;;5096904;28;20987;-73
2021/06/05 10:50:47;;;;;;;107.27;73.87;;;23.80;99.90;;;;;;5089983;28;20461;-73
2021/06/05 10:53:30;;;;;;;107.33;69.10;;;23.80;99.90;;;;;;5087855;28;20960;-72
2021/06/05 10:56:01;;;;;;;107.03;70.80;;;23.70;99.90;;;;;;5089338;28;20571;-72
2021/06/05 10:58:42;;;;;;;111.93;76.80;;;22.80;99.90;;;;;;5088252;28;20576;-74
2021/06/05 11:01:12;;;;;;;115.60;77.77;;;22.60;99.90;;;;;;5093757;28;20607;-73
2021/06/05 11:03:57;;;;;;;114.80;78.17;;;22.30;99.90;;;;;;5094266;28;20473;-73
2021/06/05 11:06:27;;;;;;;116.53;76.20;;;22.10;99.90;;;;;;5088188;28;20457;-72
2021/06/05 11:08:59;;;;;;;118.50;79.07;;;22.00;99.90;;;;;;5091584;28;20453;-75
2021/06/05 11:11:40;;;;;;;115.50;76.47;;;21.90;99.90;;;;;;5090373;28;20953;-73
2021/06/05 11:14:36;;;;;;;128.37;80.90;;;21.90;99.90;;;;;;5094618;28;20976;-74
2021/06/05 11:17:28;;;;;;;123.00;78.33;;;21.80;99.90;;;;;;5083938;28;20469;-72
2021/06/05 11:20:35;;;;;;;141.33;90.00;;;21.40;99.90;;;;;;5089982;28;20760;-70
2021/06/05 11:23:15;;;;;;;126.30;79.77;;;20.90;99.90;;;;;;5090170;28;21088;-71
2021/06/05 11:25:46;;;;;;;134.13;83.57;;;20.90;99.90;;;;;;5093779;28;20568;-71
2021/06/05 11:28:45;;;;;;;130.47;87.50;;;21.00;99.90;;;;;;5100507;28;20878;-71
2021/06/05 11:31:42;;;;;;;139.00;84.90;;;20.60;99.90;;;;;;5087069;28;20464;-71
2021/06/05 11:34:30;;;;;;;127.00;79.67;;;20.60;99.90;;;;;;5090799;28;20835;-73
2021/06/05 11:36:59;;;;;;;133.37;82.70;;;20.70;99.90;;;;;;5091845;28;20465;-70
2021/06/05 11:39:49;;;;;;;131.33;80.93;;;20.40;99.90;;;;;;5090535;28;20461;-71
2021/06/05 11:42:58;;;;;;;131.60;76.83;;;20.10;99.90;;;;;;5092736;28;21041;-71
2021/06/05 11:45:52;;;;;;;134.73;83.07;;;20.20;99.90;;;;;;5068331;28;20533;-71
2021/06/05 11:48:46;;;;;;;134.50;80.63;;;20.10;99.90;;;;;;5089629;28;20468;-71
2021/06/05 11:51:26;;;;;;;107.07;69.30;;;19.90;99.90;;;;;;5096591;28;20963;-73
2021/06/05 11:53:54;;;;;;;109.53;70.10;;;20.00;99.90;;;;;;5093257;28;20468;-71
2021/06/05 11:56:26;;;;;;;112.10;72.53;;;20.10;99.90;;;;;;5094282;28;20513;-70
2021/06/05 11:58:53;;;;;;;113.27;73.57;;;20.00;99.90;;;;;;5100318;28;20492;-71
2021/06/05 12:01:25;;;;;;;109.37;70.83;;;19.90;99.90;;;;;;5097562;28;20503;-71
2021/06/05 12:04:03;;;;;;;108.70;72.20;;;19.70;99.90;;;;;;5097695;28;20488;-71
2021/06/05 12:06:37;;;;;;;105.60;73.57;;;19.60;99.90;;;;;;5094659;28;20959;-73
2021/06/05 12:09:12;;;;;;;103.47;72.97;;;19.70;99.90;;;;;;5094045;28;20957;-73
2021/06/05 12:11:42;;;;;;;131.97;77.13;;;19.90;99.90;;;;;;5095217;28;20464;-73
2021/06/05 12:14:16;;;;;;;118.60;74.40;;;19.90;99.90;;;;;;5092967;27;20521;-70
2021/06/05 12:16:55;;;;;;;112.97;74.40;;;19.80;99.90;;;;;;5092904;28;21017;-73
2021/06/05 12:19:32;;;;;;;111.30;71.43;;;19.90;99.90;;;;;;5098094;28;20557;-72
2021/06/05 12:22:21;;;;;;;98.40;68.27;;;19.70;99.90;;;;;;5097804;28;20481;-71
2021/06/05 12:24:51;;;;;;;95.47;70.57;;;19.70;99.90;;;;;;5098563;28;20468;-71
2021/06/05 12:27:24;;;;;;;92.83;63.20;;;19.70;99.90;;;;;;5093628;28;20461;-71
2021/06/05 12:29:50;;;;;;;94.47;69.77;;;19.80;99.90;;;;;;5098154;28;21064;-71
2021/06/05 12:32:20;;;;;;;91.50;64.80;;;19.70;99.90;;;;;;5099021;28;20461;-71
2021/06/05 12:34:48;;;;;;;96.10;64.70;;;19.80;99.90;;;;;;5099030;28;20466;-71
2021/06/05 12:37:20;;;;;;;91.63;64.20;;;19.90;99.90;;;;;;5102732;28;21031;-71
2021/06/05 12:39:49;;;;;;;88.30;64.17;;;20.00;99.90;;;;;;5092099;28;20457;-71
2021/06/05 12:42:23;;;;;;;86.07;62.80;;;19.80;99.90;;;;;;5093465;28;20493;-72